Tiempo atmosférico en la estación meteorológica de Quinto, Zaragoza (205 m.)



Fecha
DESCASC
Temp. máxima en grados centígrados (hora)
DESCASC
Temp. mínima en grados centígrados (hora)
DESCASC
Temp. media en grados centígrados
DESCASC
Racha de viento máxima en m/sg (hora)
DESCASC
Velocidad máxima media en intervalos de 10 minutos(hora)
DESCASC
Precipitaciones diarias en mm
DESCASC
Precipitaciones de 00:00 a 06:00 en mm
DESCASC
Precipitaciones de 06:00 a 12:00 en mm
DESCASC
Precipitaciones de 12:00 a 18:00 en mm
DESCASC
Precipitaciones de 18:00 a 24:00 en mm
DESCASC
20-08-2019 24.4 (17:40) 15.9 (00:00) 20.1 11.67 (02:40) 7.5 (02:40) 22 0 19.2 2.8 0
26-07-2019 31.4 (17:10) 21.8 (00:00) 26.6 13.33 (22:00) 7.5 (21:50) 1.2 0.2 0.6 0.4 0
10-08-2019 34.4 (18:40) 21.3 (00:00) 27.9 11.67 (00:50) 8.33 (00:50) 0 0 0 0 0
24-08-2019 35.2 (16:50) 17.2 (00:00) 26.2 5.83 (23:30) 3.61 (23:20) 0 0 0 0 0
23-08-2019 33.9 (18:00) 15.3 (00:00) 24.6 5.83 (23:00) 3.61 (05:20) 0 0 0 0 0
22-08-2019 30.7 (19:40) 16.7 (00:00) 23.7 10 (11:10) 6.67 (11:10) 0 0 0 0 0
21-08-2019 27.8 (15:30) 18.1 (00:00) 22.9 5.28 (10:40) 3.33 (10:40) 0 0 0 0 0
19-08-2019 30.1 (17:20) 19.4 (00:00) 24.8 13.06 (01:00) 7.78 (01:00) 0 0 0 0 0
18-08-2019 38.8 (16:30) 19.8 (00:00) 29.3 13.89 (23:59) 7.78 (23:40) 0 0 0 0 0
17-08-2019 38.6 (18:30) 20 (00:00) 29.3 9.17 (19:30) 5.83 (20:10) 0 0 0 0 0
16-08-2019 35.4 (18:30) 16.1 (00:00) 25.8 7.22 (01:20) 4.17 (01:20) 0 0 0 0 0
15-08-2019 32 (17:10) 21.2 (00:00) 26.6 11.39 (13:00) 7.22 (20:10) 0 0 0 0 0
14-08-2019 33 (18:30) 15.5 (00:00) 24.3 10 (15:40) 6.67 (16:00) 0 0 0 0 0
13-08-2019 28.3 (17:30) 16.9 (00:00) 22.6 12.22 (01:10) 7.22 (01:10) 0 0 0 0 0
12-08-2019 27 (16:40) 17.8 (00:00) 22.4 16.67 (20:50) 10.28 (20:10) 0 0 0 0 0
11-08-2019 32.8 (17:50) 20.1 (00:00) 26.4 14.44 (22:30) 8.89 (22:40) 0 0 0 0 0
09-08-2019 40.9 (16:30) 21.6 (00:00) 31.3 15.56 (23:10) 10.83 (23:00) 0 0 0 0 0
08-08-2019 37.8 (19:30) 20.9 (00:00) 29.3 6.67 (02:40) 4.17 (02:50) 0 0 0 0 0
07-08-2019 31.6 (18:00) 22.2 (00:00) 26.9 12.22 (03:40) 7.5 (04:30) 0 0 0 0 0
06-08-2019 38.2 (18:30) 20.9 (00:00) 29.6 6.39 (21:50) 3.89 (22:00) 0 0 0 0 0
05-08-2019 38.6 (18:30) 20.6 (00:00) 29.6 9.44 (19:00) 5.83 (19:40) 0 0 0 0 0
04-08-2019 38.8 (18:00) 19.4 (00:00) 29.1 9.44 (20:00) 6.11 (20:00) 0 0 0 0 0
03-08-2019 38.3 (18:10) 18.4 (00:00) 28.3 9.72 (20:30) 5 (20:40) 0 0 0 0 0
02-08-2019 35 (18:30) 20.5 (00:00) 27.8 10.83 (04:20) 6.94 (04:20) 0 0 0 0 0
01-08-2019 35.5 (19:00) 20.5 (00:00) 28 -- (--) -- (--) 0 0 0 0 0
29-07-2019 36.6 (18:20) 13.2 (00:00) 24.9 12.22 (23:59) 6.94 (23:10) 0 0 0 0 0
31-07-2019 33.3 (18:00) 16.5 (00:00) 24.9 10.28 (04:00) 6.11 (04:00) 0 0 0 0 0
30-07-2019 29.2 (17:10) 18.3 (00:00) 23.8 16.11 (03:00) 9.44 (02:50) 0 0 0 0 0
28-07-2019 28.8 (17:50) 17.1 (00:00) 22.9 20.28 (01:00) 11.11 (01:20) 0 0 0 0 0
27-07-2019 27.6 (15:00) 19.5 (00:00) 23.6 19.72 (19:00) 11.11 (18:40) 0 0 0 0 0

Gráficas

Temp. máximas Temp. mínimas Temp. medias Precipitaciones Rachas de viento máximas Velocidades máximas media en intervalos de 10 minutos

Datos horarios

Fecha y hora oficial Temperatura (ºC) Velocidad del viento (km/h) Dirección del viento Racha (km/h) Dirección de racha Precipitación (mm) Presión (hPa) Tendencia (hPa) Humedad (%)
2019-08-24 23:00:00 27.8 11 Sudeste 19 Sudeste 0 -- -- 42
2019-08-24 22:00:00 29.2 10 Sudeste 18 Este 0 -- -- 38
2019-08-24 21:00:00 31.3 7 Este 12 Este 0 -- -- 34
2019-08-24 20:00:00 34.4 3 Sudeste 7 Este 0 -- -- 26
2019-08-24 19:00:00 35.1 3 Noroeste 10 Noroeste 0 -- -- 21
2019-08-24 18:00:00 35.2 6 Oeste 15 Nordeste 0 -- -- 24
2019-08-24 17:00:00 35.2 6 Este 14 Nordeste 0 -- -- 25
2019-08-24 16:00:00 34.9 6 Sudeste 16 Sudeste 0 -- -- 26
2019-08-24 15:00:00 33.9 5 Norte 14 Oeste 0 -- -- 31
2019-08-24 14:00:00 32.2 6 Este 13 Este 0 -- -- 35
2019-08-24 13:00:00 30.3 4 Este 13 Sudeste 0 -- -- 44
2019-08-24 12:00:00 27.7 5 Este 14 Este 0 -- -- 52
2019-08-24 11:00:00 25.7 6 Sur 14 Sudeste 0 -- -- 57
2019-08-24 10:00:00 23.5 9 Sudeste 14 Este 0 -- -- 62
2019-08-24 09:00:00 20.6 5 Sudeste 9 Sudeste 0 -- -- 74
2019-08-24 08:00:00 17.8 4 Este 10 Sudoeste 0 -- -- 86
2019-08-24 07:00:00 17.4 6 Sudoeste 10 Sudoeste 0 -- -- 84
2019-08-24 06:00:00 17.8 7 Sudoeste 10 Sudoeste 0 -- -- 83
2019-08-24 05:00:00 18.7 7 Sudoeste 8 Sudoeste 0 -- -- 81
2019-08-24 04:00:00 20 0 Calma 6 Oeste 0 -- -- 76
2019-08-24 03:00:00 20.7 4 Oeste 8 Sudoeste 0 -- -- 74
2019-08-24 02:00:00 22 6 Oeste 9 Nordeste 0 -- -- 69
2019-08-24 01:00:00 23.9 6 Este 16 Sudeste 0 -- -- 61
2019-08-24 00:00:00 25.5 9 Sudeste 16 Este 0 -- -- 55
2019-08-23 23:00:00 26.7 11 Sudeste 21 Sudeste 0 -- -- 52
2019-08-23 22:00:00 27.5 9 Sudeste 18 Sudeste 0 -- -- 50
2019-08-23 21:00:00 30 3 Este 7 Nordeste 0 -- -- 35
2019-08-23 20:00:00 32.5 4 Noroeste 8 Noroeste 0 -- -- 29
2019-08-23 19:00:00 33.5 4 Norte 11 Noroeste 0 -- -- 23
2019-08-23 18:00:00 33.9 4 Noroeste 13 Noroeste 0 -- -- 24
2019-08-23 17:00:00 33.4 4 Norte 14 Nordeste 0 -- -- 22
2019-08-23 16:00:00 32.8 7 Norte 14 Nordeste 0 -- -- 28
2019-08-23 15:00:00 31.8 6 Norte 13 Norte 0 -- -- 31
2019-08-23 14:00:00 29.9 4 Este 12 Este 0 -- -- 39
2019-08-23 13:00:00 27.4 5 Norte 12 Norte 0 -- -- 41
2019-08-23 12:00:00 25.2 5 Norte 9 Noroeste 0 -- -- 50
2019-08-23 11:00:00 22.2 7 Noroeste 13 Noroeste 0 -- -- 59
2019-08-23 10:00:00 20.4 5 Noroeste 10 Oeste 0 -- -- 68
2019-08-23 09:00:00 17.6 4 Sudoeste 7 Oeste 0 -- -- 79
2019-08-23 08:00:00 15.6 0 Calma 5 Sudoeste 0 -- -- 86
2019-08-23 07:00:00 15.7 2 Sudoeste 6 Oeste 0 -- -- 84
2019-08-23 06:00:00 16.1 7 Oeste 15 Oeste 0 -- -- 81
2019-08-23 05:00:00 16.3 8 Sudoeste 11 Sudoeste 0 -- -- 84
2019-08-23 04:00:00 17.4 3 Sudeste 7 Este 0 -- -- 80
2019-08-23 03:00:00 18.3 2 Sudoeste 5 Este 0 -- -- 80
2019-08-23 02:00:00 18.9 6 Este 18 Oeste 0 -- -- 78
2019-08-23 01:00:00 19.7 2 Sudeste 9 Sudoeste 0 -- -- 71
2019-08-23 00:00:00 20.7 6 Sudeste 9 Sudeste 0 -- -- 69
2019-08-22 23:00:00 22.2 5 Sur 12 Sudoeste 0 -- -- 62
2019-08-22 22:00:00 24.4 5 Sudoeste 8 Sudoeste 0 -- -- 59
2019-08-22 21:00:00 27.6 5 Sudeste 5 Sudeste 0 -- -- 45
2019-08-22 20:00:00 29.9 3 Norte 8 Norte 0 -- -- 39
2019-08-22 19:00:00 30.4 4 Norte 17 Noroeste 0 -- -- 35
2019-08-22 18:00:00 30.2 7 Noroeste 20 Noroeste 0 -- -- 35
2019-08-22 17:00:00 29.7 15 Noroeste 23 Noroeste 0 -- -- 32
2019-08-22 16:00:00 28.9 16 Norte 27 Noroeste 0 -- -- 37
2019-08-22 15:00:00 27.9 16 Norte 27 Noroeste 0 -- -- 40
2019-08-22 14:00:00 26.9 17 Noroeste 26 Noroeste 0 -- -- 41
2019-08-22 13:00:00 25.5 16 Noroeste 28 Noroeste 0 -- -- 46
2019-08-22 12:00:00 23.9 18 Noroeste 36 Noroeste 0 -- -- 49
2019-08-22 11:00:00 22.7 21 Noroeste 33 Noroeste 0 -- -- 51
2019-08-22 10:00:00 20.6 6 Noroeste 11 Noroeste 0 -- -- 64
2019-08-22 09:00:00 19.1 4 Noroeste 10 Este 0 -- -- 67
2019-08-22 08:00:00 17 6 Este 10 Este 0 -- -- 76
2019-08-22 07:00:00 17.5 4 Noroeste 13 Oeste 0 -- -- 69
2019-08-22 06:00:00 17.9 4 Este 17 Noroeste 0 -- -- 72
2019-08-22 05:00:00 19 8 Oeste 17 Oeste 0 -- -- 62
2019-08-22 04:00:00 19.2 5 Noroeste 22 Oeste 0 -- -- 66
2019-08-22 03:00:00 19.6 6 Noroeste 19 Oeste 0 -- -- 72
2019-08-22 02:00:00 20.9 12 Noroeste 27 Oeste 0 -- -- 67
2019-08-22 01:00:00 20.9 10 Oeste 19 Noroeste 0 -- -- 75
2019-08-22 00:00:00 21.6 8 Sudoeste 12 Sudoeste 0 -- -- 78
2019-08-21 23:00:00 22.8 7 Oeste 10 Oeste 0 -- -- 75
2019-08-21 22:00:00 23.3 5 Noroeste 12 Noroeste 0 -- -- 72
2019-08-21 21:00:00 24.4 10 Oeste 13 Oeste 0 -- -- 65
2019-08-21 20:00:00 24.6 10 Sudoeste 16 Sur 0 -- -- 66
2019-08-21 19:00:00 25.9 10 Sur 13 Sur 0 -- -- 62
2019-08-21 18:00:00 26.6 8 Sur 13 Sur 0 -- -- 57
2019-08-21 17:00:00 27.7 5 Sudoeste 10 Oeste 0 -- -- 49
2019-08-21 16:00:00 27.6 4 Noroeste 15 Noroeste 0 -- -- 50
2019-08-21 15:00:00 27.2 7 Norte 18 Norte 0 -- -- 50
2019-08-21 14:00:00 26.4 8 Norte 15 Noroeste 0 -- -- 51
2019-08-21 13:00:00 24.6 9 Noroeste 16 Noroeste 0 -- -- 54
2019-08-21 12:00:00 23.5 6 Noroeste 17 Noroeste 0 -- -- 57
2019-08-21 11:00:00 21.9 11 Noroeste 19 Norte 0 -- -- 62
2019-08-21 10:00:00 20.6 10 Noroeste 18 Oeste 0 -- -- 65
2019-08-21 09:00:00 19.4 10 Oeste 16 Oeste 0 -- -- 67
2019-08-21 08:00:00 18.1 3 Oeste 8 Oeste 0 -- -- 76
2019-08-21 07:00:00 18.3 3 Oeste 17 Noroeste 0 -- -- 74
2019-08-21 06:00:00 18.6 9 Noroeste 15 Noroeste 0 -- -- 72
2019-08-21 05:00:00 18.3 6 Oeste 17 Oeste 0 -- -- 74
2019-08-21 04:00:00 18.4 7 Oeste 15 Oeste 0 -- -- 73
2019-08-21 03:00:00 18.7 6 Oeste 10 Oeste 0 -- -- 74
2019-08-21 02:00:00 18.7 6 Oeste 11 Oeste 0 -- -- 73
2019-08-21 01:00:00 19.2 8 Oeste 14 Oeste 0 -- -- 72
2019-08-21 00:00:00 20.3 12 Noroeste 19 Oeste 0 -- -- 67
2019-08-20 23:00:00 20.3 6 Sur 12 Sudoeste 0 -- -- 82
2019-08-20 22:00:00 21.4 7 Sudeste 15 Sudeste 0 -- -- 76
2019-08-20 21:00:00 22.7 6 Sudeste 13 Sudeste 0 -- -- 73
2019-08-20 20:00:00 23.7 3 Sur 13 Sudoeste 0 -- -- 64
2019-08-20 19:00:00 24.3 8 Sudeste 15 Sudeste 0 -- -- 63
2019-08-20 18:00:00 24.2 9 Sudeste 17 Este 0 -- -- 64
2019-08-20 17:00:00 23.8 10 Sudeste 16 Sudeste 0 -- -- 67
2019-08-20 16:00:00 22.5 6 Sudeste 14 Este 0 -- -- 72
2019-08-20 15:00:00 21.8 5 Norte 12 Norte 0 -- -- 73
2019-08-20 14:00:00 19.3 4 Noroeste 9 Noroeste 0 -- -- 86
2019-08-20 13:00:00 17.2 4 Oeste 14 Noroeste 2.8 -- -- 91
2019-08-20 12:00:00 16.7 5 Noroeste 25 Oeste 4.8 -- -- 93
2019-08-20 11:00:00 15.9 15 Oeste 35 Oeste 12.4 -- -- 93
2019-08-20 10:00:00 16.3 18 Oeste 30 Oeste 1 -- -- 92
2019-08-20 09:00:00 16.3 15 Noroeste 29 Oeste 0 -- -- 92
2019-08-20 08:00:00 16.8 12 Oeste 21 Oeste 0 -- -- 91
2019-08-20 07:00:00 16.6 8 Noroeste 27 Oeste 1 -- -- 92
2019-08-20 06:00:00 16.6 20 Noroeste 42 Noroeste 0 -- -- 91
2019-08-20 05:00:00 16.6 21 Noroeste 35 Oeste 0 -- -- 90
2019-08-20 04:00:00 17.3 20 Noroeste 34 Noroeste 0 -- -- 87
2019-08-20 03:00:00 18.8 24 Noroeste 42 Oeste 0 -- -- 78
2019-08-20 02:00:00 20 23 Noroeste 38 Noroeste 0 -- -- 70
2019-08-20 01:00:00 21 21 Noroeste 35 Noroeste 0 -- -- 68
2019-08-20 00:00:00 21.7 18 Noroeste 39 Noroeste 0 -- -- 61
2019-08-19 23:00:00 22.6 22 Noroeste 39 Oeste 0 -- -- 55
2019-08-19 22:00:00 23.5 21 Noroeste 40 Noroeste 0 -- -- 50
2019-08-19 21:00:00 25.1 21 Noroeste 44 Noroeste 0 -- -- 44
2019-08-19 20:00:00 26.6 21 Noroeste 36 Noroeste 0 -- -- 42
2019-08-19 19:00:00 27 23 Noroeste 40 Noroeste 0 -- -- 42
2019-08-19 18:00:00 29.1 19 Noroeste 28 Noroeste 0 -- -- 41
2019-08-19 17:00:00 29.1 13 Noroeste 27 Noroeste 0 -- -- 40
2019-08-19 16:00:00 29.3 12 Noroeste 28 Noroeste 0 -- -- 41
2019-08-19 15:00:00 28.9 11 Noroeste 28 Noroeste 0 -- -- 40
2019-08-19 14:00:00 27.4 14 Norte 26 Noroeste 0 -- -- 42
2019-08-19 13:00:00 25.6 17 Noroeste 29 Noroeste 0 -- -- 47
2019-08-19 12:00:00 24.3 19 Noroeste 30 Noroeste 0 -- -- 49
2019-08-19 11:00:00 23.2 20 Noroeste 35 Noroeste 0 -- -- 52
2019-08-19 10:00:00 22.1 21 Oeste 34 Oeste 0 -- -- 55
2019-08-19 09:00:00 20.4 20 Noroeste 35 Oeste 0 -- -- 60
2019-08-19 08:00:00 19.6 17 Oeste 31 Oeste 0 -- -- 63
2019-08-19 07:00:00 19.5 13 Oeste 28 Oeste 0 -- -- 63
2019-08-19 06:00:00 19.6 15 Noroeste 27 Oeste 0 -- -- 63
2019-08-19 05:00:00 20 14 Oeste 41 Oeste 0 -- -- 63
2019-08-19 04:00:00 20.7 26 Noroeste 42 Noroeste 0 -- -- 63
2019-08-19 03:00:00 21.5 19 Noroeste 40 Oeste 0 -- -- 62
2019-08-19 02:00:00 22.5 22 Noroeste 43 Oeste 0 -- -- 61
2019-08-19 01:00:00 23.6 28 Noroeste 47 Oeste 0 -- -- 60
2019-08-19 00:00:00 24.9 28 Noroeste 50 Oeste 0 -- -- 56
2019-08-18 23:00:00 26 25 Oeste 45 Oeste 0 -- -- 54
2019-08-18 22:00:00 30 20 Noroeste 42 Noroeste 0 -- -- 47
2019-08-18 21:00:00 31.5 12 Nordeste 27 Este 0 -- -- 49
2019-08-18 20:00:00 34.8 12 Este 31 Este 0 -- -- 37
2019-08-18 19:00:00 36.7 21 Este 30 Este 0 -- -- 31
2019-08-18 18:00:00 37.3 18 Sudeste 32 Sudeste 0 -- -- 31
2019-08-18 17:00:00 37.8 5 Nordeste 18 Nordeste 0 -- -- 28
2019-08-18 16:00:00 37.6 11 Norte 17 Noroeste 0 -- -- 28
2019-08-18 15:00:00 36.4 6 Norte 15 Norte 0 -- -- 32
2019-08-18 14:00:00 35.1 7 Nordeste 17 Norte 0 -- -- 39
2019-08-18 13:00:00 32.5 5 Norte 13 Noroeste 0 -- -- 46
2019-08-18 12:00:00 30.4 5 Este 12 Este 0 -- -- 55
2019-08-18 11:00:00 28.2 4 Norte 13 Sudeste 0 -- -- 62
2019-08-18 10:00:00 25.9 6 Sudoeste 12 Oeste 0 -- -- 68
2019-08-18 09:00:00 23.3 3 Oeste 6 Sudoeste 0 -- -- 76
2019-08-18 08:00:00 20.2 4 Sudoeste 7 Sudoeste 0 -- -- 83
2019-08-18 07:00:00 20.1 0 Calma 5 Oeste 0 -- -- 80
2019-08-18 06:00:00 20.9 2 Oeste 6 Sudoeste 0 -- -- 79
2019-08-18 05:00:00 22 2 Oeste 4 Oeste 0 -- -- 76
2019-08-18 04:00:00 23.2 0 Calma 12 Este 0 -- -- 75
2019-08-18 03:00:00 23.6 2 Este 13 Este 0 -- -- 74
2019-08-18 02:00:00 24.7 7 Este 23 Este 0 -- -- 73
2019-08-18 01:00:00 25.3 8 Este 17 Este 0 -- -- 71
2019-08-18 00:00:00 26 6 Nordeste 16 Este 0 -- -- 68
2019-08-17 23:00:00 27.4 10 Este 17 Este 0 -- -- 63
2019-08-17 22:00:00 29.2 7 Este 24 Este 0 -- -- 57
2019-08-17 21:00:00 31.4 16 Este 32 Este 0 -- -- 49
2019-08-17 20:00:00 34.7 17 Este 33 Este 0 -- -- 40
2019-08-17 19:00:00 36.9 19 Este 32 Este 0 -- -- 37
2019-08-17 18:00:00 38.2 7 Nordeste 18 Este 0 -- -- 30
2019-08-17 17:00:00 37.9 8 Nordeste 18 Este 0 -- -- 31
2019-08-17 16:00:00 36.3 12 Norte 18 Noroeste 0 -- -- 36
2019-08-17 15:00:00 35.4 6 Nordeste 14 Este 0 -- -- 37
2019-08-17 14:00:00 33.7 6 Sudeste 15 Sudeste 0 -- -- 42
2019-08-17 13:00:00 31.9 6 Este 15 Nordeste 0 -- -- 47
2019-08-17 12:00:00 29.1 7 Norte 17 Norte 0 -- -- 53
2019-08-17 11:00:00 27.3 5 Norte 13 Norte 0 -- -- 56
2019-08-17 10:00:00 25.9 4 Nordeste 10 Nordeste 0 -- -- 62
2019-08-17 09:00:00 23.6 3 Nordeste 9 Sudoeste 0 -- -- 71
2019-08-17 08:00:00 20.2 9 Sudoeste 12 Sudoeste 0 -- -- 79
2019-08-17 07:00:00 20.3 6 Sudoeste 8 Sudoeste 0 -- -- 78
2019-08-17 06:00:00 21.1 7 Sudoeste 10 Sudoeste 0 -- -- 75
2019-08-17 05:00:00 22.8 4 Este 7 Nordeste 0 -- -- 72
2019-08-17 04:00:00 23.4 0 Calma 13 Sudeste 0 -- -- 68
2019-08-17 03:00:00 24.5 5 Este 15 Este 0 -- -- 64
2019-08-17 02:00:00 25.2 5 Este 11 Este 0 -- -- 62
2019-08-17 01:00:00 26 6 Este 11 Este 0 -- -- 59
2019-08-17 00:00:00 27.4 5 Nordeste 21 Sudeste 0 -- -- 56
2019-08-16 23:00:00 29 11 Sudeste 21 Este 0 -- -- 48
2019-08-16 22:00:00 30.1 11 Sudeste 24 Sudeste 0 -- -- 45
2019-08-16 21:00:00 32.2 13 Este 24 Sudeste 0 -- -- 41
2019-08-16 20:00:00 34.4 5 Nordeste 16 Nordeste 0 -- -- 29
2019-08-16 19:00:00 35.3 6 Nordeste 18 Este 0 -- -- 27
2019-08-16 18:00:00 35.1 9 Este 17 Este 0 -- -- 26
2019-08-16 17:00:00 34.4 5 Este 12 Nordeste 0 -- -- 27
2019-08-16 16:00:00 32.9 7 Este 15 Este 0 -- -- 27
2019-08-16 15:00:00 31.4 5 Norte 14 Este 0 -- -- 29
2019-08-16 14:00:00 29.4 5 Nordeste 13 Este 0 -- -- 29
2019-08-16 13:00:00 27.1 5 Norte 14 Noroeste 0 -- -- 35
2019-08-16 12:00:00 24.5 7 Norte 18 Noroeste 0 -- -- 44
2019-08-16 11:00:00 22.7 10 Noroeste 20 Noroeste 0 -- -- 47
2019-08-16 10:00:00 19.5 6 Noroeste 12 Norte 0 -- -- 60
2019-08-16 09:00:00 17.8 3 Noroeste 7 Oeste 0 -- -- 63
2019-08-16 08:00:00 16.3 0 Calma 11 Noroeste 0 -- -- 68
2019-08-16 07:00:00 16.6 5 Noroeste 8 Noroeste 0 -- -- 66
2019-08-16 06:00:00 17.3 4 Noroeste 11 Noroeste 0 -- -- 62
2019-08-16 05:00:00 18.3 8 Noroeste 13 Oeste 0 -- -- 57
2019-08-16 04:00:00 19.4 6 Noroeste 22 Oeste 0 -- -- 52
2019-08-16 03:00:00 20.7 12 Oeste 21 Oeste 0 -- -- 47
2019-08-16 02:00:00 21.7 11 Oeste 26 Oeste 0 -- -- 45
2019-08-16 01:00:00 22.9 13 Oeste 25 Noroeste 0 -- -- 43
2019-08-16 00:00:00 23.9 8 Noroeste 30 Oeste 0 -- -- 34
2019-08-15 23:00:00 25.1 19 Oeste 36 Oeste 0 -- -- 36
2019-08-15 22:00:00 26.4 14 Oeste 30 Noroeste 0 -- -- 36
2019-08-15 21:00:00 28.2 19 Noroeste 40 Noroeste 0 -- -- 34
2019-08-15 20:00:00 30.4 23 Noroeste 40 Oeste 0 -- -- 28
2019-08-15 19:00:00 31.5 23 Noroeste 40 Oeste 0 -- -- 28
2019-08-15 18:00:00 32 22 Noroeste 36 Noroeste 0 -- -- 26
2019-08-15 17:00:00 31.8 21 Noroeste 35 Oeste 0 -- -- 29
2019-08-15 16:00:00 31 19 Noroeste 37 Noroeste 0 -- -- 37
2019-08-15 15:00:00 30.7 18 Noroeste 35 Oeste 0 -- -- 39
2019-08-15 14:00:00 30 19 Noroeste 37 Noroeste 0 -- -- 42
2019-08-15 13:00:00 28.8 23 Noroeste 41 Oeste 0 -- -- 45
2019-08-15 12:00:00 27.5 21 Noroeste 34 Noroeste 0 -- -- 48
2019-08-15 11:00:00 26.1 22 Noroeste 35 Oeste 0 -- -- 53
2019-08-15 10:00:00 25 20 Noroeste 31 Noroeste 0 -- -- 57
2019-08-15 09:00:00 23 10 Noroeste 16 Oeste 0 -- -- 65
2019-08-15 08:00:00 21.6 11 Noroeste 20 Oeste 0 -- -- 67
2019-08-15 07:00:00 21.4 10 Oeste 28 Noroeste 0 -- -- 67
2019-08-15 06:00:00 21.7 14 Noroeste 30 Noroeste 0 -- -- 65
2019-08-15 05:00:00 22.1 17 Noroeste 33 Noroeste 0 -- -- 63
2019-08-15 04:00:00 22.9 18 Noroeste 31 Noroeste 0 -- -- 59
2019-08-15 03:00:00 23.4 14 Noroeste 24 Oeste 0 -- -- 56
2019-08-15 02:00:00 24 13 Oeste 22 Oeste 0 -- -- 51
2019-08-15 01:00:00 24.9 10 Oeste 17 Oeste 0 -- -- 46
2019-08-15 00:00:00 26 4 Oeste 21 Oeste 0 -- -- 41
2019-08-14 23:00:00 27.7 15 Oeste 20 Noroeste 0 -- -- 36
2019-08-14 22:00:00 28.6 11 Oeste 17 Oeste 0 -- -- 32
2019-08-14 21:00:00 30.6 11 Oeste 18 Noroeste 0 -- -- 28
2019-08-14 20:00:00 32.3 16 Oeste 26 Noroeste 0 -- -- 25
2019-08-14 19:00:00 32.9 15 Noroeste 27 Noroeste 0 -- -- 24
2019-08-14 18:00:00 32.9 19 Noroeste 36 Noroeste 0 -- -- 23
2019-08-14 17:00:00 32.6 19 Noroeste 32 Noroeste 0 -- -- 23
2019-08-14 16:00:00 31.8 24 Noroeste 36 Noroeste 0 -- -- 24
2019-08-14 15:00:00 31.3 21 Noroeste 31 Noroeste 0 -- -- 23
2019-08-14 14:00:00 29.8 18 Noroeste 27 Noroeste 0 -- -- 26
2019-08-14 13:00:00 27.8 8 Norte 16 Noroeste 0 -- -- 36
2019-08-14 12:00:00 26 4 Noroeste 12 Sur 0 -- -- 40
2019-08-14 11:00:00 23.4 3 Sur 12 Noroeste 0 -- -- 45
2019-08-14 10:00:00 20.4 6 Noroeste 11 Norte 0 -- -- 52
2019-08-14 09:00:00 18.7 5 Norte 8 Nordeste 0 -- -- 57
2019-08-14 08:00:00 16.3 0 Calma 9 Norte 0 -- -- 62
2019-08-14 07:00:00 15.6 3 Noroeste 9 Este 0 -- -- 63
2019-08-14 06:00:00 16.9 5 Este 19 Oeste 0 -- -- 56
2019-08-14 05:00:00 17.2 6 Oeste 13 Oeste 0 -- -- 50
2019-08-14 04:00:00 17.1 3 Noroeste 7 Norte 0 -- -- 57
2019-08-14 03:00:00 18.3 5 Este 19 Oeste 0 -- -- 55
2019-08-14 02:00:00 19.6 10 Sudoeste 19 Oeste 0 -- -- 45
2019-08-14 01:00:00 20.1 11 Oeste 19 Oeste 0 -- -- 46
2019-08-14 00:00:00 20.7 12 Sudoeste 27 Oeste 0 -- -- 48
2019-08-13 23:00:00 22.4 15 Oeste 25 Oeste 0 -- -- 41
2019-08-13 22:00:00 23.7 17 Oeste 27 Oeste 0 -- -- 35
2019-08-13 21:00:00 25.4 14 Oeste 34 Oeste 0 -- -- 31
2019-08-13 20:00:00 27.1 20 Noroeste 33 Oeste 0 -- -- 29
2019-08-13 19:00:00 27.7 24 Noroeste 39 Noroeste 0 -- -- 27
2019-08-13 18:00:00 28 23 Noroeste 39 Noroeste 0 -- -- 26
2019-08-13 17:00:00 27.8 21 Noroeste 37 Noroeste 0 -- -- 28
2019-08-13 16:00:00 26.9 23 Noroeste 37 Noroeste 0 -- -- 29
2019-08-13 15:00:00 25.8 21 Noroeste 36 Noroeste 0 -- -- 32
2019-08-13 14:00:00 24.6 24 Noroeste 41 Noroeste 0 -- -- 36
2019-08-13 13:00:00 23 20 Noroeste 36 Noroeste 0 -- -- 42
2019-08-13 12:00:00 21.5 20 Noroeste 37 Oeste 0 -- -- 46
2019-08-13 11:00:00 20.1 20 Noroeste 36 Noroeste 0 -- -- 49
2019-08-13 10:00:00 18.7 17 Noroeste 37 Oeste 0 -- -- 54
2019-08-13 09:00:00 18.1 19 Noroeste 32 Noroeste 0 -- -- 54
2019-08-13 08:00:00 17.2 19 Oeste 33 Oeste 0 -- -- 56
2019-08-13 07:00:00 16.9 15 Oeste 29 Oeste 0 -- -- 57
2019-08-13 06:00:00 17.2 12 Oeste 30 Oeste 0 -- -- 56
2019-08-13 05:00:00 17.5 14 Oeste 36 Oeste 0 -- -- 57
2019-08-13 04:00:00 17.4 18 Oeste 31 Oeste 0 -- -- 58
2019-08-13 03:00:00 17.2 17 Oeste 33 Oeste 0 -- -- 59
2019-08-13 02:00:00 17.5 12 Noroeste 44 Oeste 0 -- -- 57
2019-08-13 01:00:00 17.8 23 Oeste 43 Oeste 0 -- -- 57
2019-08-13 00:00:00 18.7 28 Oeste 51 Oeste 0 -- -- 55
2019-08-12 23:00:00 19.9 22 Oeste 53 Oeste 0 -- -- 50
2019-08-12 22:00:00 20.8 28 Noroeste 51 Noroeste 0 -- -- 46
2019-08-12 21:00:00 21.9 32 Noroeste 60 Noroeste 0 -- -- 42
2019-08-12 20:00:00 24.2 31 Noroeste 55 Noroeste 0 -- -- 36
2019-08-12 19:00:00 25.9 33 Noroeste 55 Oeste 0 -- -- 33
2019-08-12 18:00:00 26.8 33 Noroeste 58 Oeste 0 -- -- 31
2019-08-12 17:00:00 26.9 33 Noroeste 50 Oeste 0 -- -- 29
2019-08-12 16:00:00 26.7 32 Noroeste 52 Oeste 0 -- -- 31
2019-08-12 15:00:00 26.2 32 Noroeste 48 Oeste 0 -- -- 35
2019-08-12 14:00:00 25.6 30 Noroeste 47 Noroeste 0 -- -- 38
2019-08-12 13:00:00 24.6 24 Oeste 42 Oeste 0 -- -- 41
2019-08-12 12:00:00 22.8 24 Oeste 43 Noroeste 0 -- -- 45
2019-08-12 11:00:00 21.4 25 Noroeste 50 Noroeste 0 -- -- 49
2019-08-12 10:00:00 20.4 31 Oeste 52 Noroeste 0 -- -- 53
2019-08-12 09:00:00 19.3 29 Noroeste 49 Noroeste 0 -- -- 58
2019-08-12 08:00:00 17.8 27 Oeste 54 Oeste 0 -- -- 63
2019-08-12 07:00:00 18.2 28 Oeste 46 Oeste 0 -- -- 62
2019-08-12 06:00:00 18.7 31 Noroeste 48 Oeste 0 -- -- 60
2019-08-12 05:00:00 18.6 26 Oeste 48 Oeste 0 -- -- 61
2019-08-12 04:00:00 19.2 25 Oeste 48 Oeste 0 -- -- 61
2019-08-12 03:00:00 19.8 25 Noroeste 45 Noroeste 0 -- -- 61
2019-08-12 02:00:00 20.6 26 Noroeste 46 Oeste 0 -- -- 59
2019-08-12 01:00:00 21.6 28 Oeste 48 Oeste 0 -- -- 56
2019-08-12 00:00:00 23.2 26 Oeste 49 Noroeste 0 -- -- 50
2019-08-11 23:00:00 24.8 30 Noroeste 52 Noroeste 0 -- -- 43
2019-08-11 22:00:00 26.3 23 Noroeste 40 Oeste 0 -- -- 42
2019-08-11 21:00:00 28.4 26 Noroeste 42 Noroeste 0 -- -- 36
2019-08-11 20:00:00 30.5 23 Oeste 35 Oeste 0 -- -- 32
2019-08-11 19:00:00 32.4 18 Noroeste 32 Noroeste 0 -- -- 31
2019-08-11 18:00:00 32.6 15 Noroeste 28 Noroeste 0 -- -- 31
2019-08-11 17:00:00 32.2 16 Noroeste 35 Noroeste 0 -- -- 32
2019-08-11 16:00:00 32.1 19 Noroeste 32 Noroeste 0 -- -- 30
2019-08-11 15:00:00 29.9 14 Noroeste 39 Noroeste 0 -- -- 40
2019-08-11 14:00:00 28.6 21 Noroeste 33 Noroeste 0 -- -- 41
2019-08-11 13:00:00 27.2 18 Noroeste 30 Noroeste 0 -- -- 47
2019-08-11 12:00:00 25.9 18 Noroeste 30 Noroeste 0 -- -- 51
2019-08-11 11:00:00 24.7 9 Noroeste 32 Noroeste 0 -- -- 56
2019-08-11 10:00:00 23.5 21 Noroeste 45 Oeste 0 -- -- 59
2019-08-11 09:00:00 22.2 28 Oeste 44 Noroeste 0 -- -- 61
2019-08-11 08:00:00 20.6 5 Noroeste 10 Noroeste 0 -- -- 67
2019-08-11 07:00:00 20.2 6 Oeste 12 Oeste 0 -- -- 67
2019-08-11 06:00:00 20.7 8 Oeste 18 Noroeste 0 -- -- 65
2019-08-11 05:00:00 21 8 Noroeste 17 Noroeste 0 -- -- 66
2019-08-11 04:00:00 21.4 12 Noroeste 19 Noroeste 0 -- -- 64
2019-08-11 03:00:00 22.3 13 Noroeste 31 Noroeste 0 -- -- 61
2019-08-11 02:00:00 23.5 19 Noroeste 35 Noroeste 0 -- -- 58
2019-08-11 01:00:00 24.9 16 Noroeste 27 Noroeste 0 -- -- 56
2019-08-11 00:00:00 25.9 10 Noroeste 15 Noroeste 0 -- -- 46
2019-08-10 23:00:00 28.1 8 Noroeste 12 Noroeste 0 -- -- 39
2019-08-10 22:00:00 28.3 10 Noroeste 19 Noroeste 0 -- -- 44
2019-08-10 21:00:00 30.7 12 Noroeste 21 Noroeste 0 -- -- 37
2019-08-10 20:00:00 33.4 14 Noroeste 21 Noroeste 0 -- -- 32
2019-08-10 19:00:00 34.1 12 Noroeste 19 Noroeste 0 -- -- 31
2019-08-10 18:00:00 34.2 13 Noroeste 23 Noroeste 0 -- -- 30
2019-08-10 17:00:00 33.7 10 Noroeste 19 Noroeste 0 -- -- 30
2019-08-10 16:00:00 33 8 Noroeste 21 Norte 0 -- -- 31
2019-08-10 15:00:00 31.9 12 Noroeste 26 Noroeste 0 -- -- 32
2019-08-10 14:00:00 30.3 15 Noroeste 29 Noroeste 0 -- -- 34
2019-08-10 13:00:00 29.8 17 Noroeste 28 Noroeste 0 -- -- 34
2019-08-10 12:00:00 28.7 19 Noroeste 31 Oeste 0 -- -- 36
2019-08-10 11:00:00 26.9 18 Noroeste 28 Noroeste 0 -- -- 44
2019-08-10 10:00:00 25.3 16 Noroeste 31 Oeste 0 -- -- 49
2019-08-10 09:00:00 24.2 16 Noroeste 36 Oeste 0 -- -- 50
2019-08-10 08:00:00 22.1 6 Oeste 10 Oeste 0 -- -- 54
2019-08-10 07:00:00 21.7 7 Oeste 13 Oeste 0 -- -- 54
2019-08-10 06:00:00 22.2 3 Norte 15 Sudoeste 0 -- -- 62
2019-08-10 05:00:00 23.4 9 Oeste 26 Oeste 0 -- -- 54
2019-08-10 04:00:00 23.8 5 Norte 16 Oeste 0 -- -- 55
2019-08-10 03:00:00 24.6 10 Sudoeste 30 Oeste 0 -- -- 53
2019-08-10 02:00:00 25.5 16 Oeste 37 Oeste 0 -- -- 54
2019-08-10 01:00:00 26.2 25 Oeste 42 Noroeste 0 -- -- 49
2019-08-10 00:00:00 26.7 23 Noroeste 56 Oeste 0 -- -- 56
2019-08-09 23:00:00 29.8 39 Noroeste 55 Noroeste 0 -- -- 49
2019-08-09 22:00:00 32 23 Oeste 46 Oeste 0 -- -- 41
2019-08-09 21:00:00 36.7 19 Oeste 39 Oeste 0 -- -- 26
2019-08-09 20:00:00 39.1 20 Sudoeste 32 Sur 0 -- -- 24
2019-08-09 19:00:00 40.4 15 Sudoeste 29 Sur 0 -- -- 22
2019-08-09 18:00:00 40.1 14 Oeste 34 Sudoeste 0 -- -- 22
2019-08-09 17:00:00 40.5 19 Oeste 36 Sudoeste 0 -- -- 22
2019-08-09 16:00:00 40.3 16 Oeste 35 Sudoeste 0 -- -- 21
2019-08-09 15:00:00 40.1 13 Oeste 32 Oeste 0 -- -- 21
2019-08-09 14:00:00 38.9 18 Sudoeste 35 Sudoeste 0 -- -- 22
2019-08-09 13:00:00 37.9 22 Oeste 36 Sudoeste 0 -- -- 23
2019-08-09 12:00:00 35.3 6 Sur 15 Oeste 0 -- -- 29
2019-08-09 11:00:00 32.1 8 Este 12 Sudeste 0 -- -- 38
2019-08-09 10:00:00 29 6 Este 13 Este 0 -- -- 45
2019-08-09 09:00:00 26.2 5 Este 8 Este 0 -- -- 52
2019-08-09 08:00:00 22.6 0 Calma 9 Sudeste 0 -- -- 63
2019-08-09 07:00:00 22.2 4 Este 14 Sudeste 0 -- -- 63
2019-08-09 06:00:00 21.7 5 Sudeste 7 Sudeste 0 -- -- 63
2019-08-09 05:00:00 23.4 4 Este 13 Este 0 -- -- 57
2019-08-09 04:00:00 24.2 3 Este 7 Este 0 -- -- 61
2019-08-09 03:00:00 24.8 3 Sur 10 Sudoeste 0 -- -- 55
2019-08-09 02:00:00 25.6 4 Sudoeste 8 Sudoeste 0 -- -- 55
2019-08-09 01:00:00 27.8 2 Norte 10 Este 0 -- -- 48
2019-08-09 00:00:00 29.4 5 Este 15 Este 0 -- -- 46
2019-08-08 23:00:00 31.7 8 Sudeste 17 Sudeste 0 -- -- 39
2019-08-08 22:00:00 33 2 Sudeste 16 Nordeste 0 -- -- 35
2019-08-08 21:00:00 35.7 3 Sudeste 8 Este 0 -- -- 29
2019-08-08 20:00:00 37.4 4 Nordeste 10 Nordeste 0 -- -- 26
2019-08-08 19:00:00 37.6 3 Norte 10 Norte 0 -- -- 26
2019-08-08 18:00:00 37 9 Noroeste 14 Noroeste 0 -- -- 28
2019-08-08 17:00:00 36.5 5 Norte 13 Norte 0 -- -- 29
2019-08-08 16:00:00 34.7 5 Nordeste 14 Norte 0 -- -- 31
2019-08-08 15:00:00 35 8 Norte 18 Norte 0 -- -- 30
2019-08-08 14:00:00 34.1 6 Nordeste 15 Norte 0 -- -- 32
2019-08-08 13:00:00 32.7 6 Este 15 Norte 0 -- -- 35
2019-08-08 12:00:00 31.2 5 Nordeste 12 Nordeste 0 -- -- 37
2019-08-08 11:00:00 29.1 5 Nordeste 13 Noroeste 0 -- -- 43
2019-08-08 10:00:00 26.6 5 Norte 10 Norte 0 -- -- 48
2019-08-08 09:00:00 25.5 3 Sudeste 6 Sudeste 0 -- -- 49
2019-08-08 08:00:00 22.1 2 Noroeste 8 Sudoeste 0 -- -- 55
2019-08-08 07:00:00 21.4 0 Calma 8 Oeste 0 -- -- 56
2019-08-08 06:00:00 21.9 5 Oeste 12 Sudoeste 0 -- -- 57
2019-08-08 05:00:00 23.2 7 Sudoeste 12 Oeste 0 -- -- 49
2019-08-08 04:00:00 25 10 Oeste 16 Noroeste 0 -- -- 44
2019-08-08 03:00:00 26.9 12 Oeste 24 Oeste 0 -- -- 41
2019-08-08 02:00:00 26.4 5 Oeste 15 Noroeste 0 -- -- 46
2019-08-08 01:00:00 25.5 3 Norte 11 Sudoeste 0 -- -- 54
2019-08-08 00:00:00 26.9 3 Sur 9 Oeste 0 -- -- 50
2019-08-07 23:00:00 27.9 3 Nordeste 9 Sudeste 0 -- -- 49
2019-08-07 22:00:00 28.6 9 Sur 13 Sur 0 -- -- 44
2019-08-07 21:00:00 29.7 5 Noroeste 11 Oeste 0 -- -- 44
2019-08-07 20:00:00 30.4 8 Sur 13 Sur 0 -- -- 42
2019-08-07 19:00:00 31 3 Norte 7 Este 0 -- -- 41
2019-08-07 18:00:00 31.6 4 Nordeste 13 Sur 0 -- -- 41
2019-08-07 17:00:00 30.8 10 Sur 15 Sur 0 -- -- 43
2019-08-07 16:00:00 30.7 5 Este 9 Este 0 -- -- 46
2019-08-07 15:00:00 29.6 4 Norte 12 Norte 0 -- -- 48
2019-08-07 14:00:00 29.5 8 Norte 19 Noroeste 0 -- -- 48
2019-08-07 13:00:00 29.4 15 Noroeste 26 Noroeste 0 -- -- 48
2019-08-07 12:00:00 28.6 21 Noroeste 31 Oeste 0 -- -- 45
2019-08-07 11:00:00 26.9 23 Noroeste 31 Noroeste 0 -- -- 50
2019-08-07 10:00:00 25.1 8 Noroeste 18 Noroeste 0 -- -- 58
2019-08-07 09:00:00 23.6 10 Noroeste 23 Noroeste 0 -- -- 60
2019-08-07 08:00:00 22.4 9 Oeste 18 Noroeste 0 -- -- 63
2019-08-07 07:00:00 22.7 8 Noroeste 29 Oeste 0 -- -- 61
2019-08-07 06:00:00 23 16 Oeste 24 Oeste 0 -- -- 61
2019-08-07 05:00:00 23.3 19 Noroeste 43 Oeste 0 -- -- 63
2019-08-07 04:00:00 24 24 Oeste 44 Oeste 0 -- -- 62
2019-08-07 03:00:00 24.9 21 Noroeste 39 Oeste 0 -- -- 60
2019-08-07 02:00:00 26.1 22 Noroeste 44 Oeste 0 -- -- 58
2019-08-07 01:00:00 28.7 13 Oeste 27 Oeste 0 -- -- 49
2019-08-07 00:00:00 30.4 9 Este 15 Este 0 -- -- 44
2019-08-06 23:00:00 31.8 8 Este 22 Sudeste 0 -- -- 41
2019-08-06 22:00:00 33.2 14 Sudeste 23 Sudeste 0 -- -- 40
2019-08-06 21:00:00 35.1 8 Este 18 Sudeste 0 -- -- 31
2019-08-06 20:00:00 36.3 11 Sudeste 19 Sudeste 0 -- -- 27
2019-08-06 19:00:00 37.9 3 Oeste 9 Norte 0 -- -- 22
2019-08-06 18:00:00 37.9 6 Norte 14 Este 0 -- -- 22
2019-08-06 17:00:00 37.2 8 Noroeste 14 Norte 0 -- -- 26
2019-08-06 16:00:00 36.1 6 Noroeste 14 Noroeste 0 -- -- 32
2019-08-06 15:00:00 34 8 Nordeste 18 Noroeste 0 -- -- 35
2019-08-06 14:00:00 32.8 6 Noroeste 12 Este 0 -- -- 38
2019-08-06 13:00:00 30.3 5 Norte 13 Norte 0 -- -- 47
2019-08-06 12:00:00 28.5 6 Norte 14 Norte 0 -- -- 51
2019-08-06 11:00:00 26.7 9 Noroeste 19 Noroeste 0 -- -- 54
2019-08-06 10:00:00 25.3 14 Noroeste 23 Noroeste 0 -- -- 58
2019-08-06 09:00:00 23.2 11 Noroeste 16 Noroeste 0 -- -- 63
2019-08-06 08:00:00 21.3 4 Noroeste 6 Noroeste 0 -- -- 72
2019-08-06 07:00:00 21 5 Noroeste 9 Noroeste 0 -- -- 73
2019-08-06 06:00:00 21.5 9 Noroeste 15 Noroeste 0 -- -- 72
2019-08-06 05:00:00 22.5 8 Noroeste 13 Noroeste 0 -- -- 66
2019-08-06 04:00:00 23.9 2 Noroeste 9 Nordeste 0 -- -- 55
2019-08-06 03:00:00 24.6 4 Nordeste 11 Nordeste 0 -- -- 51
2019-08-06 02:00:00 25.5 4 Nordeste 9 Norte 0 -- -- 54
2019-08-06 01:00:00 26.5 4 Nordeste 14 Este 0 -- -- 51
2019-08-06 00:00:00 27.8 4 Este 19 Este 0 -- -- 49
2019-08-05 23:00:00 29.5 12 Este 26 Este 0 -- -- 45
2019-08-05 22:00:00 31 13 Este 19 Este 0 -- -- 41
2019-08-05 21:00:00 33.4 12 Este 29 Este 0 -- -- 39
2019-08-05 20:00:00 35.5 15 Este 30 Este 0 -- -- 33
2019-08-05 19:00:00 37.5 17 Este 34 Este 0 -- -- 33
2019-08-05 18:00:00 38 8 Nordeste 18 Este 0 -- -- 24
2019-08-05 17:00:00 37.5 9 Este 20 Este 0 -- -- 27
2019-08-05 16:00:00 36.3 12 Sudeste 23 Este 0 -- -- 33
2019-08-05 15:00:00 34 6 Sudeste 15 Sudeste 0 -- -- 39
2019-08-05 14:00:00 31.9 7 Noroeste 14 Noroeste 0 -- -- 44
2019-08-05 13:00:00 30.1 6 Este 15 Norte 0 -- -- 48
2019-08-05 12:00:00 28.1 10 Norte 21 Noroeste -- -- -- 52
2019-08-05 11:00:00 26.2 14 Noroeste 22 Noroeste 0 -- -- 56
2019-08-05 10:00:00 24.7 13 Noroeste 23 Noroeste 0 -- -- 61
2019-08-05 09:00:00 23.2 9 Noroeste 17 Oeste 0 -- -- 64
2019-08-05 08:00:00 21.3 2 Norte 8 Noroeste 0 -- -- 72
2019-08-05 07:00:00 20.7 4 Noroeste 10 Noroeste 0 -- -- 74
2019-08-05 06:00:00 21.1 6 Noroeste 15 Noroeste 0 -- -- 73
2019-08-05 05:00:00 22.1 9 Noroeste 19 Noroeste 0 -- -- 68
2019-08-05 04:00:00 23.4 6 Oeste 12 Oeste 0 -- -- 63
2019-08-05 03:00:00 23.8 5 Oeste 17 Noroeste 0 -- -- 63
2019-08-05 02:00:00 25.1 8 Noroeste 12 Noroeste 0 -- -- 67
2019-08-05 01:00:00 26.2 4 Noroeste 10 Este 0 -- -- 63
2019-08-05 00:00:00 27.2 5 Este 11 Este 0 -- -- 60
2019-08-04 23:00:00 28.6 6 Este 13 Este 0 -- -- 55
2019-08-04 22:00:00 30.7 8 Este 26 Sudeste 0 -- -- 51
2019-08-04 21:00:00 32.9 15 Sudeste 30 Este 0 -- -- 44
2019-08-04 20:00:00 35.6 22 Este 34 Sudeste 0 -- -- 40
2019-08-04 19:00:00 37.9 16 Este 27 Este 0 -- -- 31
2019-08-04 18:00:00 38.8 9 Sudeste 25 Este 0 -- -- 26
2019-08-04 17:00:00 38.3 8 Este 17 Este 0 -- -- 27
2019-08-04 16:00:00 36.4 6 Norte 15 Noroeste 0 -- -- 32
2019-08-04 15:00:00 35 6 Norte 13 Norte 0 -- -- 35
2019-08-04 14:00:00 33.4 5 Nordeste 12 Nordeste 0 -- -- 40
2019-08-04 13:00:00 31.4 5 Noroeste 12 Oeste 0 -- -- 42
2019-08-04 12:00:00 29 5 Norte 12 Norte 0 -- -- 50
2019-08-04 11:00:00 27.4 5 Norte 12 Noroeste 0 -- -- 54
2019-08-04 10:00:00 25.6 4 Norte 13 Noroeste 0 -- -- 58
2019-08-04 09:00:00 23.1 7 Noroeste 11 Noroeste 0 -- -- 63
2019-08-04 08:00:00 20.5 4 Sudoeste 7 Sudoeste 0 -- -- 70
2019-08-04 07:00:00 19.6 6 Sudoeste 9 Sudoeste 0 -- -- 72
2019-08-04 06:00:00 20.2 6 Sudoeste 8 Sudoeste 0 -- -- 71
2019-08-04 05:00:00 22.1 3 Nordeste 6 Norte 0 -- -- 62
2019-08-04 04:00:00 22.8 4 Norte 6 Norte 0 -- -- 61
2019-08-04 03:00:00 23.7 3 Norte 11 Nordeste 0 -- -- 61
2019-08-04 02:00:00 24.6 4 Norte 14 Este 0 -- -- 63
2019-08-04 01:00:00 25.4 5 Nordeste 14 Este 0 -- -- 60
2019-08-04 00:00:00 26.6 7 Este 14 Nordeste 0 -- -- 56
2019-08-03 23:00:00 27.7 8 Este 20 Este 0 -- -- 55
2019-08-03 22:00:00 29.3 13 Este 32 Sudeste 0 -- -- 52
2019-08-03 21:00:00 32.5 12 Este 35 Sudeste 0 -- -- 43
2019-08-03 20:00:00 35.6 16 Este 34 Este 0 -- -- 34
2019-08-03 19:00:00 37.9 12 Este 21 Este 0 -- -- 28
2019-08-03 18:00:00 38.1 8 Nordeste 15 Norte 0 -- -- 25
2019-08-03 17:00:00 37.5 7 Norte 17 Norte 0 -- -- 25
2019-08-03 16:00:00 37 6 Este 15 Este 0 -- -- 25
2019-08-03 15:00:00 34.9 7 Nordeste 15 Este 0 -- -- 30
2019-08-03 14:00:00 33.1 5 Norte 13 Sudeste 0 -- -- 36
2019-08-03 13:00:00 31.4 5 Sudeste 13 Este 0 -- -- 41
2019-08-03 12:00:00 28.6 4 Nordeste 12 Noroeste 0 -- -- 47
2019-08-03 11:00:00 26.3 4 Norte 12 Norte 0 -- -- 50
2019-08-03 10:00:00 24.1 10 Noroeste 21 Noroeste 0 -- -- 57
2019-08-03 09:00:00 21.4 10 Noroeste 16 Norte 0 -- -- 68
2019-08-03 08:00:00 19.2 8 Noroeste 13 Noroeste 0 -- -- 73
2019-08-03 07:00:00 19.1 9 Noroeste 11 Noroeste 0 -- -- 73
2019-08-03 06:00:00 20.4 6 Noroeste 10 Noroeste 0 -- -- 68
2019-08-03 05:00:00 21.6 6 Noroeste 11 Noroeste 0 -- -- 62
2019-08-03 04:00:00 22.6 7 Noroeste 12 Noroeste 0 -- -- 58
2019-08-03 03:00:00 23.2 6 Noroeste 12 Noroeste 0 -- -- 56
2019-08-03 02:00:00 23.9 4 Norte 11 Noroeste 0 -- -- 51
2019-08-03 01:00:00 25.2 5 Nordeste 12 Sudoeste 0 -- -- 46
2019-08-03 00:00:00 26.4 10 Sudoeste 13 Sudoeste 0 -- -- 41
2019-08-02 23:00:00 27.8 4 Este 16 Este 0 -- -- 43
2019-08-02 22:00:00 30 5 Sudoeste 11 Oeste 0 -- -- 33
2019-08-02 21:00:00 33.3 8 Oeste 14 Oeste 0 -- -- 29
2019-08-02 20:00:00 34.8 8 Noroeste 16 Noroeste 0 -- -- 29
2019-08-02 19:00:00 35 12 Noroeste 21 Noroeste 0 -- -- 27
2019-08-02 18:00:00 34.8 9 Noroeste 15 Noroeste 0 -- -- 31
2019-08-02 17:00:00 33.8 7 Norte 15 Norte 0 -- -- 33
2019-08-02 16:00:00 32.9 9 Norte 18 Norte 0 -- -- 37
2019-08-02 15:00:00 31.5 12 Noroeste 25 Noroeste 0 -- -- 39
2019-08-02 14:00:00 29.6 15 Noroeste 26 Noroeste 0 -- -- 44
2019-08-02 13:00:00 28.3 17 Noroeste 30 Norte 0 -- -- 47
2019-08-02 12:00:00 26.9 19 Noroeste 32 Noroeste 0 -- -- 50
2019-08-02 11:00:00 25.1 20 Noroeste 30 Noroeste 0 -- -- 56
2019-08-02 10:00:00 23.6 22 Noroeste 32 Oeste 0 -- -- 60
2019-08-02 09:00:00 22.3 17 Noroeste 29 Oeste 0 -- -- 64
2019-08-02 08:00:00 21 12 Noroeste 23 Noroeste 0 -- -- 69
2019-08-02 07:00:00 20.7 16 Noroeste 32 Noroeste 0 -- -- 70
2019-08-02 06:00:00 20.9 19 Noroeste 32 Oeste 0 -- -- 70
2019-08-02 05:00:00 21.2 17 Noroeste 39 Oeste 0 -- -- 69
2019-08-02 04:00:00 21.7 21 Noroeste 34 Noroeste 0 -- -- 67
2019-08-02 03:00:00 22.4 17 Noroeste 32 Noroeste 0 -- -- 66
2019-08-02 02:00:00 23.3 18 Noroeste 28 Noroeste 0 -- -- 64
2019-08-02 01:00:00 24.5 15 Noroeste 33 Oeste 0 -- -- 61
2019-08-02 00:00:00 25.9 19 Noroeste 30 Noroeste 0 -- -- 58
2019-08-01 23:00:00 27.7 7 Oeste 13 Noroeste 0 -- -- 47
2019-08-01 22:00:00 29 4 Nordeste 17 Sudeste 0 -- -- 37
2019-08-01 21:00:00 31.5 10 Sudeste 23 Sudeste 0 -- -- 33
2019-08-01 20:00:00 33.5 16 Este 32 Este 0 -- -- 31
2019-08-01 19:00:00 35.5 7 Nordeste 19 Este 0 -- -- 31
2019-08-01 18:00:00 35.1 3 Noroeste 12 Noroeste 0 -- -- 30
2019-08-01 17:00:00 33.9 8 Norte 17 Norte 0 -- -- 30
2019-08-01 16:00:00 33.6 9 Sudoeste 19 Sudoeste 0 -- -- 32
2019-08-01 15:00:00 32.1 6 Norte 16 Este 0 -- -- 36
2019-08-01 14:00:00 31.9 6 Sur -- -- -- -- -- 36
2019-08-01 13:00:00 29.9 6 Noroeste 14 Sudeste 0 -- -- 44
2019-08-01 12:00:00 28.6 4 Nordeste 12 Este 0 -- -- 50
2019-08-01 11:00:00 27.2 4 Este 12 Sudeste 0 -- -- 56
2019-08-01 10:00:00 25.4 4 Nordeste 11 Este 0 -- -- 64
2019-08-01 09:00:00 23.2 8 Este 17 Sudeste 0 -- -- 71
2019-08-01 08:00:00 21.5 6 Sudeste 11 Sudeste 0 -- -- 78
2019-08-01 07:00:00 20.5 5 Este 12 Este 0 -- -- 81
2019-08-01 06:00:00 21 8 Este 21 Este 0 -- -- 79
2019-08-01 05:00:00 21.4 9 Este 17 Este 0 -- -- 78
2019-08-01 04:00:00 21.7 6 Este 18 Nordeste 0 -- -- 78
2019-08-01 03:00:00 22.1 6 Este 15 Este 0 -- -- 76
2019-08-01 02:00:00 22.7 7 Este 13 Este 0 -- -- 73
2019-08-01 01:00:00 23.6 8 Este 15 Este 0 -- -- 69
2019-08-01 00:00:00 24.8 11 Este 22 Este 0 -- -- 65
2019-07-31 23:00:00 26 9 Este 17 Este 0 -- -- 59
2019-07-31 22:00:00 27.4 11 Este 24 Sudeste 0 -- -- 55
2019-07-31 21:00:00 28.9 14 Este 29 Este 0 -- -- 49
2019-07-31 20:00:00 30.9 14 Este 31 Este 0 -- -- 43
2019-07-31 19:00:00 32.2 14 Este 31 Este 0 -- -- 37
2019-07-31 18:00:00 33.3 14 Este 30 Este 0 -- -- 34
2019-07-31 17:00:00 32.5 12 Este 24 Este 0 -- -- 32
2019-07-31 16:00:00 31.1 6 Sudeste 15 Este 0 -- -- 30
2019-07-31 15:00:00 29.3 6 Sudeste 15 Sudeste 0 -- -- 31
2019-07-31 14:00:00 26.7 6 Norte 14 Noroeste 0 -- -- 33
2019-07-31 13:00:00 25.5 5 Nordeste 17 Noroeste 0 -- -- 36
2019-07-31 12:00:00 22.7 8 Noroeste 24 Noroeste 0 -- -- 42
2019-07-31 11:00:00 21.1 15 Noroeste 26 Noroeste 0 -- -- 51
2019-07-31 10:00:00 19.5 17 Noroeste 24 Noroeste 0 -- -- 53
2019-07-31 09:00:00 18.5 10 Norte 22 Oeste 0 -- -- 58
2019-07-31 08:00:00 17.4 13 Oeste 27 Oeste 0 -- -- 59
2019-07-31 07:00:00 16.6 12 Oeste 24 Oeste 0 -- -- 61
2019-07-31 06:00:00 17.3 14 Oeste 26 Noroeste 0 -- -- 58
2019-07-31 05:00:00 18.1 14 Oeste 30 Oeste 0 -- -- 56
2019-07-31 04:00:00 18.3 22 Oeste 37 Oeste 0 -- -- 56
2019-07-31 03:00:00 18.1 14 Oeste 30 Oeste 0 -- -- 57
2019-07-31 02:00:00 18.5 17 Oeste 28 Oeste 0 -- -- 54
2019-07-31 01:00:00 19.2 11 Oeste 30 Oeste 0 -- -- 49
2019-07-31 00:00:00 20.6 23 Noroeste 39 Noroeste 0 -- -- 46
2019-07-30 23:00:00 22.2 22 Noroeste 43 Oeste 0 -- -- 42
2019-07-30 22:00:00 23.8 19 Noroeste 35 Noroeste 0 -- -- 38
2019-07-30 21:00:00 25.5 19 Noroeste 45 Oeste 0 -- -- 36
2019-07-30 20:00:00 27.1 27 Noroeste 40 Oeste 0 -- -- 32
2019-07-30 19:00:00 28 25 Noroeste 42 Noroeste 0 -- -- 32
2019-07-30 18:00:00 29 20 Noroeste 36 Oeste 0 -- -- 30
2019-07-30 17:00:00 29.1 24 Noroeste 38 Oeste 0 -- -- 30
2019-07-30 16:00:00 28.6 25 Noroeste 41 Oeste 0 -- -- 30
2019-07-30 15:00:00 27.8 25 Noroeste 36 Noroeste 0 -- -- 33
2019-07-30 14:00:00 26.8 24 Noroeste 40 Noroeste 0 -- -- 36
2019-07-30 13:00:00 25.5 27 Noroeste 50 Oeste 0 -- -- 39
2019-07-30 12:00:00 24.7 26 Noroeste 47 Oeste 0 -- -- 44
2019-07-30 11:00:00 23.4 26 Noroeste 42 Noroeste 0 -- -- 46
2019-07-30 10:00:00 21.9 24 Noroeste 52 Noroeste 0 -- -- 50
2019-07-30 09:00:00 20.3 26 Noroeste 48 Oeste 0 -- -- 56
2019-07-30 08:00:00 19 18 Noroeste 39 Oeste 0 -- -- 62
2019-07-30 07:00:00 18.3 13 Noroeste 31 Oeste 0 -- -- 63
2019-07-30 06:00:00 18.8 20 Oeste 38 Oeste 0 -- -- 64
2019-07-30 05:00:00 19.2 19 Noroeste 40 Oeste 0 -- -- 64
2019-07-30 04:00:00 19.7 24 Noroeste 50 Noroeste 0 -- -- 62
2019-07-30 03:00:00 20.5 31 Noroeste 58 Noroeste 0 -- -- 59
2019-07-30 02:00:00 21.5 29 Noroeste 51 Oeste 0 -- -- 57
2019-07-30 01:00:00 22.4 28 Oeste 50 Noroeste 0 -- -- 57
2019-07-30 00:00:00 24.2 23 Noroeste 44 Noroeste 0 -- -- 54
2019-07-29 23:00:00 28.7 12 Noroeste 26 Este 0 -- -- 41
2019-07-29 22:00:00 30.5 6 Este 19 Este 0 -- -- 36
2019-07-29 21:00:00 32.4 13 Este 32 Este 0 -- -- 27
2019-07-29 20:00:00 35.7 6 Este 13 Este 0 -- -- 22
2019-07-29 19:00:00 35.8 6 Norte 10 Este 0 -- -- 22
2019-07-29 18:00:00 36.4 5 Sudeste 13 Sur 0 -- -- 21
2019-07-29 17:00:00 36 5 Norte 13 Nordeste 0 -- -- 22
2019-07-29 16:00:00 35.2 5 Norte 14 Norte 0 -- -- 22
2019-07-29 15:00:00 33.1 6 Noroeste 15 Norte 0 -- -- 24
2019-07-29 14:00:00 30.9 8 Norte 15 Noroeste 0 -- -- 29
2019-07-29 13:00:00 29.1 6 Norte 10 Nordeste 0 -- -- 32
2019-07-29 12:00:00 27 4 Nordeste 12 Este 0 -- -- 36
2019-07-29 11:00:00 24.6 4 Norte 9 Sudeste 0 -- -- 41
2019-07-29 10:00:00 21.5 3 Norte 6 Norte 0 -- -- 51
2019-07-29 09:00:00 18.7 3 Oeste 6 Sudoeste 0 -- -- 56
2019-07-29 08:00:00 15.2 2 Noroeste 4 Noroeste 0 -- -- 68
2019-07-29 07:00:00 13.3 2 Oeste 7 Sudoeste 0 -- -- 73
2019-07-29 06:00:00 14.1 5 Sudoeste 6 Sudoeste 0 -- -- 70
2019-07-29 05:00:00 15.3 3 Nordeste 7 Este 0 -- -- 67
2019-07-29 04:00:00 16 5 Este 8 Este 0 -- -- 64
2019-07-29 03:00:00 17.3 2 Este 8 Este 0 -- -- 61
2019-07-29 02:00:00 18.6 4 Sudeste 7 Oeste 0 -- -- 58
2019-07-29 01:00:00 20.2 7 Oeste 11 Oeste 0 -- -- 51
2019-07-29 00:00:00 20.7 11 Sudoeste 17 Sudoeste 0 -- -- 48
2019-07-28 23:00:00 23 7 Sudoeste 14 Oeste 0 -- -- 43
2019-07-28 22:00:00 25.2 11 Oeste 22 Noroeste 0 -- -- 39
2019-07-28 21:00:00 26.9 13 Noroeste 22 Noroeste 0 -- -- 35
2019-07-28 20:00:00 28.1 17 Noroeste 30 Noroeste 0 -- -- 34
2019-07-28 19:00:00 28.7 17 Noroeste 37 Noroeste 0 -- -- 32
2019-07-28 18:00:00 28.6 23 Noroeste 39 Noroeste 0 -- -- 33
2019-07-28 17:00:00 28.3 21 Noroeste 41 Noroeste 0 -- -- 32
2019-07-28 16:00:00 27.9 23 Oeste 43 Oeste 0 -- -- 32
2019-07-28 15:00:00 27.1 24 Oeste 46 Oeste 0 -- -- 35
2019-07-28 14:00:00 26.2 24 Noroeste 42 Noroeste 0 -- -- 40
2019-07-28 13:00:00 25 24 Oeste 51 Noroeste 0 -- -- 42
2019-07-28 12:00:00 23.4 33 Noroeste 55 Noroeste 0 -- -- 47
2019-07-28 11:00:00 21.9 36 Noroeste 57 Oeste 0 -- -- 50
2019-07-28 10:00:00 21 28 Oeste 56 Noroeste 0 -- -- 52
2019-07-28 09:00:00 19.4 35 Oeste 53 Oeste 0 -- -- 58
2019-07-28 08:00:00 18 23 Oeste 42 Oeste 0 -- -- 62
2019-07-28 07:00:00 17.1 21 Oeste 39 Oeste 0 -- -- 66
2019-07-28 06:00:00 17.6 14 Noroeste 53 Noroeste 0 -- -- 63
2019-07-28 05:00:00 17.8 34 Noroeste 57 Noroeste 0 -- -- 62
2019-07-28 04:00:00 17.9 35 Oeste 60 Oeste 0 -- -- 62
2019-07-28 03:00:00 18 35 Noroeste 60 Oeste 0 -- -- 62
2019-07-28 02:00:00 18.3 34 Oeste 61 Noroeste 0 -- -- 60
2019-07-28 01:00:00 18.8 37 Oeste 73 Oeste 0 -- -- 60
2019-07-28 00:00:00 19.5 32 Oeste 58 Oeste 0 -- -- 59
2019-07-27 23:00:00 20.2 39 Noroeste 61 Noroeste 0 -- -- 55
2019-07-26 12:00:00 -- -- -- -- -- -- -- -- --
2019-07-26 11:00:00 23.5 9 Oeste 20 Norte 0.4 -- -- 78
2019-07-26 10:00:00 24.2 5 Nordeste 14 Oeste 0 -- -- 74
2019-07-26 09:00:00 23.3 8 Oeste 26 Noroeste 0 -- -- 76
2019-07-26 08:00:00 23.7 15 Oeste 31 Noroeste 0 -- -- 72
2019-07-26 07:00:00 23.5 10 Oeste 19 Noroeste 0 -- -- 71
2019-07-26 06:00:00 23.7 8 Oeste 14 Noroeste 0 -- -- 67
2019-07-26 05:00:00 24.5 5 Sudoeste 19 Este 0 -- -- 65
2019-07-26 04:00:00 24.9 13 Este 20 Este 0 -- -- 63
2019-07-26 03:00:00 24.9 10 Este 23 Este 0 -- -- 64
2019-07-26 02:00:00 24.8 8 Este 24 Este 0.2 -- -- 67
2019-07-26 01:00:00 26.3 10 Este 17 Este 0 -- -- 58
2019-07-26 00:00:00 26.8 9 Este 17 Este 0 -- -- 58